메인 페이지
METAR-TAF:

METAR-TAF

공항 :

양곤 국제공항

양곤, 미얀마

위도: 16-46N, 경도: 096-10E, 고도: 14m

현재 날씨관측

예보는 19분 전, 19:30시(UTC)에 발표되었습니다.
북북서2kt
온도 25°C
습도 89%
기압 1012 hPa
시정: 7000m

METAR: VYYY 301930Z 33002KT 7000 NSC 25/23 Q1012 NOSIG

시각: 02:19 (19:49 UTC)

예보

예보는 2 시간 49분 전, 17:00시(UTC)에 발표되었습니다.
예보 대상 시간: 30일 18시부터 01일 18시까지 (UTC)
북동5kt
시정: 7000m
고도 2500ft 상공 구름 조금
일시적
30일 18시부터 30일 24시까지 (UTC)
4kt
시정: 6000m
고도 2500ft 상공 구름 조금
연무

TAF: VYYY 301700Z 3018/0118 05005KT 7000 FEW025 TEMPO 3018/3024 35004KT 6000 HZ FEW025

4,000개 이상의 공항 관측 자료 및 예보 (METAR 및 TAF 보고).

지도상에서 검색 가능한 기상관측소가 노란 점과 빨간 점으로 표시되어 있습니다.

기상관측소 명을 보려면 표시 위로 마우스를 이동하세요.

날씨 관측과 예보를 보려면 클릭하세요.

지도 변경 : 확대하려면 엑스 표시가 있는 녹색 버튼, 축소하려면 빼기 표시가 있는 녹색 버튼, 다음 페이지의 지도를 보려면 녹색 화살표를 클릭하세요.


METAR-TAF: